createdAt,value
2023-05-18T00:02:01.440Z,8.89
2023-05-18T00:04:29.591Z,8.70
2023-05-18T00:07:03.187Z,8.66
2023-05-18T00:09:31.341Z,8.59
2023-05-18T00:11:58.814Z,8.57
2023-05-18T00:14:25.774Z,8.35
2023-05-18T00:16:53.855Z,8.29
2023-05-18T00:19:21.187Z,8.16
2023-05-18T00:21:48.414Z,8.17
2023-05-18T00:24:15.854Z,8.18
2023-05-18T00:26:43.941Z,8.25
2023-05-18T00:29:10.493Z,8.10
2023-05-18T00:31:38.615Z,8.20
2023-05-18T00:34:09.382Z,8.09
2023-05-18T00:36:36.406Z,8.32
2023-05-18T00:39:04.424Z,8.13
2023-05-18T00:41:30.863Z,8.14
2023-05-18T00:43:57.669Z,8.32
2023-05-18T00:46:25.171Z,8.27
2023-05-18T00:48:52.815Z,8.42
2023-05-18T00:51:20.627Z,8.39
2023-05-18T00:53:47.282Z,8.42
2023-05-18T00:56:15.245Z,8.45
2023-05-18T00:58:42.485Z,8.40
2023-05-18T01:01:12.262Z,8.33
2023-05-18T01:03:39.838Z,8.33
2023-05-18T01:06:08.154Z,8.32
2023-05-18T01:08:35.598Z,8.38
2023-05-18T01:11:16.624Z,8.27
2023-05-18T01:13:56.543Z,8.28
2023-05-18T01:16:27.059Z,8.26
2023-05-18T01:19:01.063Z,8.17
2023-05-18T01:21:46.321Z,8.13
2023-05-18T01:24:36.329Z,8.11
2023-05-18T01:27:03.796Z,7.96
2023-05-18T01:29:31.012Z,8.00
2023-05-18T01:31:58.097Z,8.14
2023-05-18T01:34:24.568Z,8.21
2023-05-18T01:36:51.017Z,8.03
2023-05-18T01:39:17.744Z,8.18
2023-05-18T01:42:07.366Z,8.14
2023-05-18T01:44:40.338Z,8.04
2023-05-18T01:47:17.140Z,7.89
2023-05-18T01:50:01.903Z,7.90
2023-05-18T01:52:38.067Z,7.72
2023-05-18T01:55:05.581Z,7.79
2023-05-18T01:57:33.162Z,7.70
2023-05-18T02:00:00.072Z,7.67
2023-05-18T02:02:27.429Z,7.79
2023-05-18T02:04:54.273Z,7.76
2023-05-18T02:07:20.712Z,7.60
2023-05-18T02:09:47.179Z,7.45
2023-05-18T02:12:13.777Z,7.43
2023-05-18T02:14:40.427Z,6.99
2023-05-18T02:17:07.204Z,7.10
2023-05-18T02:19:37.941Z,7.22
2023-05-18T02:22:06.839Z,7.17
2023-05-18T02:24:33.768Z,6.90
2023-05-18T02:27:01.323Z,6.86
2023-05-18T02:29:27.750Z,6.82
2023-05-18T02:31:54.470Z,6.99
2023-05-18T02:34:22.753Z,7.13
2023-05-18T02:36:49.364Z,6.98
2023-05-18T02:39:16.115Z,7.00
2023-05-18T02:41:42.548Z,6.92
2023-05-18T02:44:09.003Z,6.89
2023-05-18T02:46:35.456Z,6.96
2023-05-18T02:49:01.922Z,6.91
2023-05-18T02:51:28.412Z,6.89
2023-05-18T02:53:54.875Z,6.73
2023-05-18T02:56:21.301Z,6.94
2023-05-18T02:58:47.828Z,6.89
2023-05-18T03:01:14.391Z,6.88
2023-05-18T03:03:42.278Z,6.88
2023-05-18T03:06:09.626Z,7.17
2023-05-18T03:08:37.182Z,7.32
2023-05-18T03:11:04.092Z,7.04
2023-05-18T03:13:30.506Z,6.92
2023-05-18T03:15:57.584Z,6.90
2023-05-18T03:18:25.281Z,6.90
2023-05-18T03:20:52.617Z,6.69
2023-05-18T03:23:20.041Z,6.68
2023-05-18T03:25:46.487Z,6.60
2023-05-18T03:28:12.899Z,6.64
2023-05-18T03:30:39.321Z,6.74
2023-05-18T03:33:05.822Z,6.76
2023-05-18T03:35:32.797Z,6.97
2023-05-18T03:37:59.469Z,6.69
2023-05-18T03:40:25.917Z,6.66
2023-05-18T03:42:52.351Z,6.46
2023-05-18T03:45:18.877Z,6.58
2023-05-18T03:47:45.468Z,6.63
2023-05-18T03:50:12.112Z,6.57
2023-05-18T03:52:39.514Z,6.54
2023-05-18T03:55:06.552Z,6.69
2023-05-18T03:57:33.179Z,6.61
2023-05-18T03:59:59.635Z,6.72
2023-05-18T04:02:26.457Z,6.76
2023-05-18T04:04:53.942Z,6.70
2023-05-18T04:07:24.226Z,6.70
2023-05-18T04:09:55.252Z,6.70
2023-05-18T04:12:21.667Z,6.57
2023-05-18T04:14:50.919Z,6.63
2023-05-18T04:17:22.025Z,6.49
2023-05-18T04:19:49.602Z,6.32
2023-05-18T04:22:16.612Z,6.36
2023-05-18T04:24:45.608Z,6.55
2023-05-18T04:27:12.330Z,6.76
2023-05-18T04:29:39.227Z,6.47
2023-05-18T04:32:10.580Z,6.33
2023-05-18T04:34:37.472Z,6.46
2023-05-18T04:37:07.938Z,6.63
2023-05-18T04:39:35.036Z,6.91
2023-05-18T04:42:01.744Z,6.96
2023-05-18T04:44:28.689Z,6.81
2023-05-18T04:46:55.279Z,6.88
2023-05-18T04:49:22.555Z,6.92
2023-05-18T04:51:50.159Z,6.96
2023-05-18T04:54:16.599Z,6.90
2023-05-18T04:56:43.013Z,6.97
2023-05-18T04:59:10.684Z,7.08
2023-05-18T05:01:37.299Z,7.07
2023-05-18T05:04:06.156Z,7.17
2023-05-18T05:06:32.590Z,7.08
2023-05-18T05:08:59.097Z,7.05
2023-05-18T05:11:25.674Z,7.32
2023-05-18T05:13:52.692Z,7.25
2023-05-18T05:16:19.148Z,7.32
2023-05-18T05:18:47.284Z,7.34
2023-05-18T05:21:13.971Z,7.35
2023-05-18T05:23:41.271Z,7.53
2023-05-18T05:26:07.739Z,7.59
2023-05-18T05:28:34.204Z,7.45
2023-05-18T05:31:00.711Z,7.49
2023-05-18T05:33:27.250Z,7.52
2023-05-18T05:35:53.776Z,7.69
2023-05-18T05:38:20.314Z,7.65
2023-05-18T05:40:46.775Z,7.76
2023-05-18T05:43:13.202Z,7.76
2023-05-18T05:45:39.692Z,7.73
2023-05-18T05:48:06.378Z,7.84
2023-05-18T05:50:32.836Z,7.99
2023-05-18T05:52:59.947Z,7.97
2023-05-18T05:55:26.443Z,7.93
2023-05-18T05:57:53.071Z,8.33
2023-05-18T06:00:20.069Z,8.32
2023-05-18T06:02:46.611Z,8.36
2023-05-18T06:05:13.063Z,8.30
2023-05-18T06:07:39.504Z,8.38
2023-05-18T06:10:06.424Z,8.58
2023-05-18T06:12:32.852Z,8.57
2023-05-18T06:14:59.354Z,8.65
2023-05-18T06:17:26.570Z,8.67
2023-05-18T06:19:53.956Z,8.98
2023-05-18T06:22:20.551Z,8.90
2023-05-18T06:24:47.204Z,8.90
2023-05-18T06:27:13.612Z,8.86
2023-05-18T06:29:46.650Z,8.93
2023-05-18T06:32:13.477Z,9.01
2023-05-18T06:34:40.006Z,9.26
2023-05-18T06:37:06.586Z,9.31
2023-05-18T06:39:32.997Z,9.32
2023-05-18T06:41:59.434Z,9.54
2023-05-18T06:44:26.406Z,9.66
2023-05-18T06:46:52.836Z,9.31
2023-05-18T06:49:19.245Z,9.37
2023-05-18T06:51:45.878Z,9.70
2023-05-18T06:54:12.947Z,9.88
2023-05-18T06:56:39.406Z,9.88
2023-05-18T06:59:05.918Z,10.07
2023-05-18T07:01:33.650Z,10.35
2023-05-18T07:04:00.282Z,10.29
2023-05-18T07:06:26.792Z,10.60
2023-05-18T07:08:53.235Z,10.80
2023-05-18T07:11:19.790Z,10.98
2023-05-18T07:13:46.267Z,10.70
2023-05-18T07:16:12.748Z,10.77
2023-05-18T07:18:39.336Z,10.65
2023-05-18T07:21:05.902Z,10.67
2023-05-18T07:23:32.623Z,10.68
2023-05-18T07:25:59.089Z,10.69
2023-05-18T07:28:25.719Z,10.84
2023-05-18T07:30:52.200Z,10.97
2023-05-18T07:33:18.678Z,11.31
2023-05-18T07:35:45.220Z,11.41
2023-05-18T07:38:11.630Z,11.69
2023-05-18T07:40:38.209Z,11.47
2023-05-18T07:43:04.615Z,11.51
2023-05-18T07:45:31.795Z,11.66
2023-05-18T07:47:58.580Z,11.87
2023-05-18T07:50:25.117Z,11.70
2023-05-18T07:52:51.586Z,11.63
2023-05-18T07:55:18.679Z,11.61
2023-05-18T07:57:45.117Z,11.69
2023-05-18T08:00:12.139Z,11.85
2023-05-18T08:02:38.707Z,11.96
2023-05-18T08:05:05.592Z,12.13
2023-05-18T08:07:32.804Z,12.30
2023-05-18T08:09:59.239Z,12.04
2023-05-18T08:12:25.725Z,12.00
2023-05-18T08:14:52.177Z,12.13
2023-05-18T08:17:19.629Z,11.99
2023-05-18T08:19:47.402Z,12.01
2023-05-18T08:22:14.890Z,12.26
2023-05-18T08:24:41.352Z,12.31
2023-05-18T08:27:09.843Z,12.36
2023-05-18T08:29:36.271Z,12.34
2023-05-18T08:32:02.856Z,12.34
2023-05-18T08:34:30.095Z,12.31
2023-05-18T08:36:56.569Z,12.84
2023-05-18T08:39:23.353Z,12.94
2023-05-18T08:42:18.881Z,12.71
2023-05-18T08:44:46.154Z,12.76
2023-05-18T08:47:15.296Z,12.81
2023-05-18T08:49:44.863Z,12.95
2023-05-18T08:52:16.187Z,12.73
2023-05-18T08:54:42.710Z,12.89
2023-05-18T08:57:09.648Z,12.67
2023-05-18T08:59:41.007Z,13.35
2023-05-18T09:02:08.026Z,12.84
2023-05-18T09:04:35.099Z,13.31
2023-05-18T09:07:03.658Z,13.50
2023-05-18T09:09:31.003Z,13.64
2023-05-18T09:11:57.713Z,13.33
2023-05-18T09:14:25.951Z,13.34
2023-05-18T09:16:53.260Z,13.25
2023-05-18T09:19:20.063Z,13.84
2023-05-18T09:21:46.935Z,13.68
2023-05-18T09:24:13.884Z,13.77
2023-05-18T09:26:40.624Z,13.76
2023-05-18T09:29:17.475Z,13.57
2023-05-18T09:31:45.856Z,13.67
2023-05-18T09:34:13.185Z,13.31
2023-05-18T09:36:40.278Z,13.92
2023-05-18T09:39:09.425Z,14.36
2023-05-18T09:41:39.292Z,14.38
2023-05-18T09:44:09.317Z,14.69
2023-05-18T09:46:37.694Z,14.68
2023-05-18T09:49:05.432Z,14.92
2023-05-18T09:51:36.255Z,14.63
2023-05-18T09:54:05.860Z,14.94
2023-05-18T09:56:35.870Z,14.49
2023-05-18T09:59:15.607Z,14.48
2023-05-18T10:01:55.172Z,14.94
2023-05-18T10:04:21.744Z,15.28
2023-05-18T10:06:49.511Z,14.17
2023-05-18T10:09:16.821Z,14.11
2023-05-18T10:11:44.094Z,14.70
2023-05-18T10:14:13.639Z,15.43
2023-05-18T10:16:41.481Z,15.21
2023-05-18T10:19:09.228Z,14.28
2023-05-18T10:21:36.784Z,14.21
2023-05-18T10:24:04.618Z,14.48
2023-05-18T10:26:32.993Z,15.35
2023-05-18T10:29:00.145Z,15.56
2023-05-18T10:31:27.731Z,14.26
2023-05-18T10:33:55.591Z,14.25
2023-05-18T10:36:22.373Z,14.84
2023-05-18T10:38:49.192Z,15.49
2023-05-18T10:41:18.770Z,15.35
2023-05-18T10:43:45.988Z,15.11
2023-05-18T10:46:13.936Z,15.68
2023-05-18T10:48:40.891Z,15.67
2023-05-18T10:51:07.972Z,15.33
2023-05-18T10:53:34.510Z,15.49
2023-05-18T10:56:01.742Z,15.37
2023-05-18T10:58:29.810Z,15.52
2023-05-18T11:00:58.358Z,15.69
2023-05-18T11:03:26.852Z,16.38
2023-05-18T11:06:08.901Z,16.35
2023-05-18T11:08:43.414Z,16.57
2023-05-18T11:11:09.881Z,16.80
2023-05-18T11:13:38.435Z,16.68
2023-05-18T11:16:06.663Z,16.67
2023-05-18T11:18:52.354Z,17.08
2023-05-18T11:21:19.566Z,16.36
2023-05-18T11:24:13.827Z,16.58
2023-05-18T11:26:40.946Z,16.99
2023-05-18T11:29:24.444Z,16.77
2023-05-18T11:31:51.935Z,16.31
2023-05-18T11:34:40.087Z,16.94
2023-05-18T11:37:09.861Z,16.73
2023-05-18T11:39:42.104Z,16.80
2023-05-18T11:42:18.515Z,16.82
2023-05-18T11:44:52.150Z,17.01
2023-05-18T11:47:18.732Z,17.38
2023-05-18T11:49:46.705Z,17.57
2023-05-18T11:52:19.490Z,17.34
2023-05-18T11:54:56.825Z,17.42
2023-05-18T11:57:35.506Z,17.49
2023-05-18T12:00:07.873Z,17.72
2023-05-18T12:02:34.891Z,18.36
2023-05-18T12:05:02.820Z,17.89
2023-05-18T12:07:34.257Z,17.65
2023-05-18T12:10:08.408Z,18.22
2023-05-18T12:12:35.163Z,19.09
2023-05-18T12:15:04.074Z,19.65
2023-05-18T12:17:49.795Z,19.36
2023-05-18T12:20:21.262Z,18.93
2023-05-18T12:22:53.000Z,19.53
2023-05-18T12:25:20.059Z,19.17
2023-05-18T12:27:48.059Z,18.98
2023-05-18T12:30:21.312Z,19.10
2023-05-18T12:32:51.246Z,19.16
2023-05-18T12:35:21.542Z,19.49
2023-05-18T12:37:48.045Z,20.12
2023-05-18T12:40:18.030Z,20.63
2023-05-18T12:42:56.607Z,20.46
2023-05-18T12:45:24.519Z,20.74
2023-05-18T12:47:54.372Z,21.16
2023-05-18T12:50:22.107Z,21.68
2023-05-18T12:52:48.785Z,21.36
2023-05-18T12:55:21.677Z,21.40
2023-05-18T12:58:04.488Z,19.80
2023-05-18T13:00:34.877Z,19.85
2023-05-18T13:03:14.650Z,20.42
2023-05-18T13:05:46.619Z,21.87
2023-05-18T13:08:18.971Z,21.71
2023-05-18T13:10:45.615Z,22.05
2023-05-18T13:13:15.365Z,20.98
2023-05-18T13:15:42.756Z,20.15
2023-05-18T13:18:13.005Z,20.64
2023-05-18T13:20:45.278Z,21.05
2023-05-18T13:23:13.897Z,21.73
2023-05-18T13:25:41.092Z,23.00
2023-05-18T13:28:09.172Z,23.04
2023-05-18T13:30:35.717Z,22.33
2023-05-18T13:33:02.379Z,21.48
2023-05-18T13:35:29.187Z,21.92
2023-05-18T13:37:55.772Z,21.21
2023-05-18T13:40:24.995Z,21.61
2023-05-18T13:42:51.997Z,21.02
2023-05-18T13:45:19.132Z,21.54
2023-05-18T13:47:47.723Z,21.10
2023-05-18T13:50:14.249Z,21.26
2023-05-18T13:52:40.750Z,20.99
2023-05-18T13:55:07.610Z,20.52
2023-05-18T13:57:34.297Z,19.83
2023-05-18T14:00:03.803Z,19.46
2023-05-18T14:02:30.299Z,19.98
2023-05-18T14:04:56.828Z,19.75
2023-05-18T14:07:24.238Z,19.36
2023-05-18T14:09:50.824Z,19.44
2023-05-18T14:12:17.264Z,20.01
2023-05-18T14:14:43.733Z,20.06
2023-05-18T14:17:11.409Z,19.47
2023-05-18T14:19:38.150Z,20.16
2023-05-18T14:22:04.740Z,19.99
2023-05-18T14:24:31.165Z,19.61
2023-05-18T14:26:57.701Z,19.87
2023-05-18T14:29:24.217Z,19.82
2023-05-18T14:31:50.969Z,19.49
2023-05-18T14:34:17.738Z,18.85
2023-05-18T14:36:44.181Z,18.96
2023-05-18T14:39:10.625Z,19.03
2023-05-18T14:41:37.048Z,18.94
2023-05-18T14:44:09.777Z,18.53
2023-05-18T14:46:36.737Z,18.40
2023-05-18T14:49:03.273Z,18.53
2023-05-18T14:51:29.687Z,18.93
2023-05-18T14:53:56.124Z,18.83
2023-05-18T14:56:22.714Z,18.64
2023-05-18T14:58:49.187Z,18.68
2023-05-18T15:01:15.639Z,18.20
2023-05-18T15:03:42.426Z,18.97
2023-05-18T15:06:09.186Z,19.20
2023-05-18T15:08:35.646Z,18.82
2023-05-18T15:11:02.074Z,18.98
2023-05-18T15:13:28.528Z,18.54
2023-05-18T15:15:55.042Z,18.80
2023-05-18T15:18:21.501Z,18.76
2023-05-18T15:20:48.404Z,19.22
2023-05-18T15:23:14.816Z,18.44
2023-05-18T15:25:41.435Z,18.39
2023-05-18T15:28:08.940Z,18.76
2023-05-18T15:30:35.427Z,18.74
2023-05-18T15:33:06.134Z,18.53
2023-05-18T15:35:34.730Z,18.47
2023-05-18T15:38:01.171Z,18.60
2023-05-18T15:40:27.689Z,18.69
2023-05-18T15:42:54.166Z,18.36
2023-05-18T15:45:20.765Z,18.21
2023-05-18T15:47:47.241Z,18.47
2023-05-18T15:50:13.750Z,18.44
2023-05-18T15:52:40.199Z,18.25
2023-05-18T15:55:07.071Z,18.39
2023-05-18T15:57:33.589Z,18.24
2023-05-18T16:00:00.190Z,18.34
2023-05-18T16:02:26.673Z,18.03
2023-05-18T16:04:53.121Z,17.89
2023-05-18T16:07:19.625Z,17.45
2023-05-18T16:09:47.920Z,17.62
2023-05-18T16:12:14.368Z,17.87
2023-05-18T16:14:40.833Z,17.45
2023-05-18T16:17:07.387Z,17.77
2023-05-18T16:19:34.016Z,17.45
2023-05-18T16:22:00.446Z,17.54
2023-05-18T16:24:26.867Z,17.79
2023-05-18T16:26:53.324Z,17.89
2023-05-18T16:29:19.738Z,18.03
2023-05-18T16:31:46.262Z,17.93
2023-05-18T16:34:12.710Z,17.80
2023-05-18T16:36:39.197Z,17.63
2023-05-18T16:39:07.696Z,17.61
2023-05-18T16:41:34.125Z,17.76
2023-05-18T16:44:00.569Z,17.38
2023-05-18T16:46:27.646Z,17.16
2023-05-18T16:48:54.086Z,17.07
2023-05-18T16:51:20.684Z,17.03
2023-05-18T16:53:47.101Z,17.25
2023-05-18T16:56:13.593Z,17.00
2023-05-18T16:58:40.019Z,16.90
2023-05-18T17:01:16.080Z,16.78
2023-05-18T17:03:53.073Z,16.69
2023-05-18T17:06:21.100Z,16.28
2023-05-18T17:08:47.546Z,16.38
2023-05-18T17:11:14.314Z,16.61
2023-05-18T17:13:40.756Z,16.86
2023-05-18T17:16:07.261Z,16.61
2023-05-18T17:18:33.725Z,16.73
2023-05-18T17:21:00.166Z,16.61
2023-05-18T17:23:26.765Z,16.91
2023-05-18T17:26:00.851Z,16.37
2023-05-18T17:28:32.104Z,16.62
2023-05-18T17:30:58.521Z,16.55
2023-05-18T17:33:24.932Z,16.73
2023-05-18T17:35:51.544Z,16.54
2023-05-18T17:38:18.102Z,16.51
2023-05-18T17:40:44.639Z,16.19
2023-05-18T17:43:11.172Z,16.23
2023-05-18T17:45:37.867Z,16.15
2023-05-18T17:48:04.618Z,16.58
2023-05-18T17:50:31.299Z,16.64
2023-05-18T17:52:58.307Z,16.52
2023-05-18T17:55:24.749Z,16.19
2023-05-18T17:57:51.530Z,15.93
2023-05-18T18:00:18.667Z,15.83
2023-05-18T18:02:45.157Z,16.02
2023-05-18T18:05:11.656Z,15.84
2023-05-18T18:07:39.085Z,15.78
2023-05-18T18:10:06.816Z,15.70
2023-05-18T18:12:33.260Z,15.87
2023-05-18T18:14:59.738Z,15.85
2023-05-18T18:17:26.243Z,15.96
2023-05-18T18:19:52.719Z,15.93
2023-05-18T18:22:19.248Z,16.01
2023-05-18T18:24:45.790Z,15.72
2023-05-18T18:27:12.219Z,15.41
2023-05-18T18:29:38.634Z,15.42
2023-05-18T18:32:05.403Z,15.56
2023-05-18T18:34:31.874Z,15.42
2023-05-18T18:36:58.920Z,15.46
2023-05-18T18:39:25.526Z,15.20
2023-05-18T18:41:51.973Z,15.35
2023-05-18T18:44:18.377Z,15.26
2023-05-18T18:46:45.242Z,14.98
2023-05-18T18:49:11.732Z,14.86
2023-05-18T18:51:38.181Z,14.77
2023-05-18T18:54:04.778Z,14.86
2023-05-18T18:56:31.506Z,14.88
2023-05-18T18:58:57.932Z,14.70
2023-05-18T19:01:24.477Z,14.79
2023-05-18T19:03:52.813Z,14.56
2023-05-18T19:06:20.172Z,14.63
2023-05-18T19:08:46.607Z,14.58
2023-05-18T19:11:13.039Z,14.70
2023-05-18T19:13:39.485Z,14.48
2023-05-18T19:16:06.541Z,14.46
2023-05-18T19:18:32.988Z,14.50
2023-05-18T19:21:01.166Z,14.46
2023-05-18T19:23:27.667Z,14.44
2023-05-18T19:25:54.905Z,14.25
2023-05-18T19:28:21.629Z,14.14
2023-05-18T19:30:48.159Z,14.12
2023-05-18T19:33:14.663Z,14.02
2023-05-18T19:35:41.381Z,14.02
2023-05-18T19:38:07.896Z,13.94
2023-05-18T19:40:34.381Z,14.08
2023-05-18T19:43:01.715Z,14.11
2023-05-18T19:45:28.237Z,14.13
2023-05-18T19:47:54.850Z,14.03
2023-05-18T19:50:21.404Z,13.99
2023-05-18T19:52:49.410Z,13.83
2023-05-18T19:55:16.450Z,13.76
2023-05-18T19:57:42.919Z,13.76
2023-05-18T20:00:11.013Z,13.93
2023-05-18T20:02:37.812Z,13.75
2023-05-18T20:05:06.720Z,13.67
2023-05-18T20:07:33.908Z,13.60
2023-05-18T20:10:00.349Z,13.39
2023-05-18T20:12:28.278Z,13.38
2023-05-18T20:14:54.792Z,13.40
2023-05-18T20:17:21.535Z,13.47
2023-05-18T20:19:50.641Z,13.43
2023-05-18T20:22:17.894Z,13.41
2023-05-18T20:24:44.725Z,13.44
2023-05-18T20:27:14.757Z,13.43
2023-05-18T20:29:41.438Z,13.43
2023-05-18T20:32:08.058Z,13.48
2023-05-18T20:34:34.889Z,13.37
2023-05-18T20:37:01.456Z,13.23
2023-05-18T20:39:28.968Z,13.30
2023-05-18T20:41:57.540Z,13.21
2023-05-18T20:44:24.917Z,13.20
2023-05-18T20:46:52.994Z,13.10
2023-05-18T20:49:22.402Z,13.03
2023-05-18T20:51:49.409Z,13.04
2023-05-18T20:54:17.765Z,13.00
2023-05-18T20:56:44.449Z,12.86
2023-05-18T20:59:12.510Z,12.78
2023-05-18T21:01:39.727Z,12.93
2023-05-18T21:04:06.660Z,13.02
2023-05-18T21:06:34.248Z,13.09
2023-05-18T21:09:01.357Z,13.08
2023-05-18T21:11:27.868Z,12.89
2023-05-18T21:13:54.282Z,12.85
2023-05-18T21:16:20.772Z,12.95
2023-05-18T21:18:47.394Z,12.98
2023-05-18T21:21:13.869Z,12.92
2023-05-18T21:23:40.304Z,12.98
2023-05-18T21:26:06.737Z,13.00
2023-05-18T21:28:33.188Z,12.84
2023-05-18T21:30:59.640Z,12.89
2023-05-18T21:33:26.224Z,12.86
2023-05-18T21:35:52.775Z,12.49
2023-05-18T21:38:19.228Z,12.57
2023-05-18T21:40:46.636Z,12.57
2023-05-18T21:43:13.292Z,12.59
2023-05-18T21:45:39.821Z,12.58
2023-05-18T21:48:06.556Z,12.72
2023-05-18T21:50:34.662Z,12.68
2023-05-18T21:53:03.001Z,12.52
2023-05-18T21:55:30.752Z,12.62
2023-05-18T21:57:57.195Z,12.57
2023-05-18T22:00:23.670Z,12.49
2023-05-18T22:02:50.178Z,12.36
2023-05-18T22:05:18.619Z,12.41
2023-05-18T22:07:45.330Z,12.41
2023-05-18T22:10:11.767Z,12.37
2023-05-18T22:12:40.302Z,12.45
2023-05-18T22:15:07.510Z,12.51
2023-05-18T22:17:34.315Z,12.41
2023-05-18T22:20:00.856Z,12.27
2023-05-18T22:22:30.619Z,12.28
2023-05-18T22:24:57.747Z,12.25
2023-05-18T22:27:24.188Z,12.42
2023-05-18T22:29:50.898Z,12.40
2023-05-18T22:32:17.875Z,12.33
2023-05-18T22:34:44.484Z,12.12
2023-05-18T22:37:10.894Z,12.14
2023-05-18T22:39:37.353Z,12.00
2023-05-18T22:42:03.879Z,11.62
2023-05-18T22:44:30.457Z,11.59
2023-05-18T22:46:57.071Z,11.70
2023-05-18T22:49:23.593Z,11.50
2023-05-18T22:51:50.021Z,11.09
2023-05-18T22:54:16.474Z,10.92
2023-05-18T22:56:42.897Z,11.16
2023-05-18T22:59:11.454Z,11.26
2023-05-18T23:01:38.235Z,10.68
2023-05-18T23:04:04.825Z,10.73
2023-05-18T23:06:31.642Z,10.67
2023-05-18T23:09:00.301Z,10.64
2023-05-18T23:11:28.355Z,10.71
2023-05-18T23:13:54.886Z,10.78
2023-05-18T23:16:22.490Z,10.72
2023-05-18T23:18:50.528Z,10.81
2023-05-18T23:21:17.155Z,10.84
2023-05-18T23:23:45.564Z,11.03
2023-05-18T23:26:12.560Z,11.03
2023-05-18T23:28:39.033Z,11.06
2023-05-18T23:31:05.535Z,10.94
2023-05-18T23:33:32.354Z,10.80
2023-05-18T23:36:02.370Z,10.66
2023-05-18T23:38:34.573Z,10.50
2023-05-18T23:41:04.639Z,10.60
2023-05-18T23:43:31.325Z,10.52
2023-05-18T23:45:59.620Z,10.65
2023-05-18T23:48:32.244Z,10.65
2023-05-18T23:51:01.653Z,10.61
2023-05-18T23:53:31.971Z,10.79
2023-05-18T23:55:59.439Z,10.85
2023-05-18T23:58:30.463Z,10.76
